sensor_id;sensor_type;location;lat;lon;timestamp;pressure;altitude;pressure_sealevel;temperature;humidity
25498;BME280;13406;53.380;7.226;2023-09-12T00:00:15;101449.75;;;20.30;100.00
25498;BME280;13406;53.380;7.226;2023-09-12T00:02:41;101459.75;;;20.42;100.00
25498;BME280;13406;53.380;7.226;2023-09-12T00:05:07;101369.38;;;19.60;100.00
25498;BME280;13406;53.380;7.226;2023-09-12T00:07:32;101501.44;;;20.59;100.00
25498;BME280;13406;53.380;7.226;2023-09-12T00:09:58;101482.72;;;20.46;100.00
25498;BME280;13406;53.380;7.226;2023-09-12T00:12:24;101484.25;;;20.42;100.00
25498;BME280;13406;53.380;7.226;2023-09-12T00:14:52;101500.69;;;20.30;100.00
25498;BME280;13406;53.380;7.226;2023-09-12T00:17:17;101563.78;;;20.39;100.00
25498;BME280;13406;53.380;7.226;2023-09-12T00:19:43;101569.22;;;20.39;100.00
25498;BME280;13406;53.380;7.226;2023-09-12T00:22:08;101579.19;;;20.33;100.00
25498;BME280;13406;53.380;7.226;2023-09-12T00:27:04;101519.88;;;19.90;100.00
25498;BME280;13406;53.380;7.226;2023-09-12T00:29:30;101565.28;;;20.01;100.00
25498;BME280;13406;53.380;7.226;2023-09-12T00:31:55;101622.47;;;20.01;100.00
25498;BME280;13406;53.380;7.226;2023-09-12T00:34:21;101602.84;;;19.87;100.00
25498;BME280;13406;53.380;7.226;2023-09-12T00:36:46;101654.03;;;19.85;100.00
25498;BME280;13406;53.380;7.226;2023-09-12T00:39:11;101695.44;;;19.52;100.00
25498;BME280;13406;53.380;7.226;2023-09-12T00:41:37;101751.38;;;20.06;100.00
25498;BME280;13406;53.380;7.226;2023-09-12T00:44:02;101725.53;;;20.21;100.00
25498;BME280;13406;53.380;7.226;2023-09-12T00:46:28;101704.44;;;20.28;100.00
25498;BME280;13406;53.380;7.226;2023-09-12T00:48:54;101666.16;;;20.35;100.00
25498;BME280;13406;53.380;7.226;2023-09-12T00:51:21;101637.94;;;20.41;100.00
25498;BME280;13406;53.380;7.226;2023-09-12T00:53:47;101629.06;;;20.33;100.00
25498;BME280;13406;53.380;7.226;2023-09-12T00:56:13;101624.56;;;20.11;100.00
25498;BME280;13406;53.380;7.226;2023-09-12T00:58:39;101620.13;;;20.21;100.00
25498;BME280;13406;53.380;7.226;2023-09-12T01:01:05;101599.16;;;20.22;100.00
25498;BME280;13406;53.380;7.226;2023-09-12T01:03:31;101605.53;;;20.27;100.00
25498;BME280;13406;53.380;7.226;2023-09-12T01:05:58;101597.72;;;19.74;100.00
25498;BME280;13406;53.380;7.226;2023-09-12T01:08:24;101644.00;;;19.74;100.00
25498;BME280;13406;53.380;7.226;2023-09-12T01:10:49;101655.00;;;20.07;100.00
25498;BME280;13406;53.380;7.226;2023-09-12T01:13:18;101649.88;;;20.23;100.00
25498;BME280;13406;53.380;7.226;2023-09-12T01:15:44;101624.53;;;19.94;100.00
25498;BME280;13406;53.380;7.226;2023-09-12T01:18:09;101621.41;;;20.02;100.00
25498;BME280;13406;53.380;7.226;2023-09-12T01:20:36;101645.97;;;19.78;100.00
25498;BME280;13406;53.380;7.226;2023-09-12T01:28:34;101808.59;;;19.83;100.00
25498;BME280;13406;53.380;7.226;2023-09-12T01:31:00;101780.53;;;19.47;100.00
25498;BME280;13406;53.380;7.226;2023-09-12T01:33:27;101859.63;;;19.99;100.00
25498;BME280;13406;53.380;7.226;2023-09-12T01:35:53;101856.31;;;19.97;100.00
25498;BME280;13406;53.380;7.226;2023-09-12T01:38:20;101857.84;;;20.17;100.00
25498;BME280;13406;53.380;7.226;2023-09-12T01:40:53;101801.72;;;19.80;100.00
25498;BME280;13406;53.380;7.226;2023-09-12T01:43:22;101866.25;;;19.80;100.00
25498;BME280;13406;53.380;7.226;2023-09-12T01:45:52;101864.69;;;20.07;100.00
25498;BME280;13406;53.380;7.226;2023-09-12T01:48:20;101857.94;;;20.10;100.00
25498;BME280;13406;53.380;7.226;2023-09-12T01:50:47;101810.00;;;19.97;100.00
25498;BME280;13406;53.380;7.226;2023-09-12T01:53:13;101840.66;;;20.16;100.00
25498;BME280;13406;53.380;7.226;2023-09-12T01:55:41;101817.22;;;20.03;100.00
25498;BME280;13406;53.380;7.226;2023-09-12T01:58:07;101840.44;;;20.06;100.00
25498;BME280;13406;53.380;7.226;2023-09-12T02:00:33;101835.13;;;19.99;100.00
25498;BME280;13406;53.380;7.226;2023-09-12T02:02:58;101812.72;;;19.62;100.00
25498;BME280;13406;53.380;7.226;2023-09-12T02:05:24;101847.06;;;19.98;100.00
25498;BME280;13406;53.380;7.226;2023-09-12T02:07:49;101823.50;;;19.92;100.00
25498;BME280;13406;53.380;7.226;2023-09-12T02:10:15;101842.47;;;20.11;100.00
25498;BME280;13406;53.380;7.226;2023-09-12T02:12:41;101849.66;;;20.17;100.00
25498;BME280;13406;53.380;7.226;2023-09-12T02:15:07;101835.19;;;20.16;100.00
25498;BME280;13406;53.380;7.226;2023-09-12T02:17:32;101797.09;;;19.93;100.00
25498;BME280;13406;53.380;7.226;2023-09-12T02:20:00;101821.50;;;19.88;100.00
25498;BME280;13406;53.380;7.226;2023-09-12T02:22:26;101820.91;;;19.97;100.00
25498;BME280;13406;53.380;7.226;2023-09-12T02:24:51;101838.06;;;19.86;100.00
25498;BME280;13406;53.380;7.226;2023-09-12T02:27:17;101826.50;;;19.37;100.00
25498;BME280;13406;53.380;7.226;2023-09-12T02:29:43;101829.25;;;19.49;100.00
25498;BME280;13406;53.380;7.226;2023-09-12T02:32:09;101899.28;;;19.95;100.00
25498;BME280;13406;53.380;7.226;2023-09-12T02:34:34;101848.00;;;19.69;100.00
25498;BME280;13406;53.380;7.226;2023-09-12T02:37:00;101909.59;;;19.93;100.00
25498;BME280;13406;53.380;7.226;2023-09-12T02:39:26;101880.78;;;19.32;100.00
25498;BME280;13406;53.380;7.226;2023-09-12T02:41:51;101929.66;;;19.38;100.00
25498;BME280;13406;53.380;7.226;2023-09-12T02:44:17;101992.91;;;19.94;100.00
25498;BME280;13406;53.380;7.226;2023-09-12T02:46:42;101970.56;;;19.62;100.00
25498;BME280;13406;53.380;7.226;2023-09-12T02:49:08;101991.34;;;19.86;100.00
25498;BME280;13406;53.380;7.226;2023-09-12T02:51:33;101996.13;;;19.91;100.00
25498;BME280;13406;53.380;7.226;2023-09-12T02:53:59;101994.78;;;19.82;100.00
25498;BME280;13406;53.380;7.226;2023-09-12T02:56:24;101963.19;;;19.32;100.00
25498;BME280;13406;53.380;7.226;2023-09-12T02:58:50;101995.22;;;19.49;100.00
25498;BME280;13406;53.380;7.226;2023-09-12T03:01:19;102004.25;;;19.61;100.00
25498;BME280;13406;53.380;7.226;2023-09-12T03:03:49;102031.97;;;19.39;100.00
25498;BME280;13406;53.380;7.226;2023-09-12T03:06:15;102052.59;;;19.29;100.00
25498;BME280;13406;53.380;7.226;2023-09-12T03:08:42;102085.25;;;19.29;100.00
25498;BME280;13406;53.380;7.226;2023-09-12T03:11:08;102096.16;;;19.47;100.00
25498;BME280;13406;53.380;7.226;2023-09-12T03:13:35;102060.31;;;19.13;100.00
25498;BME280;13406;53.380;7.226;2023-09-12T03:16:01;102106.16;;;19.47;100.00
25498;BME280;13406;53.380;7.226;2023-09-12T03:18:26;102083.28;;;19.36;100.00
25498;BME280;13406;53.380;7.226;2023-09-12T03:20:52;102084.03;;;19.43;100.00
25498;BME280;13406;53.380;7.226;2023-09-12T03:23:19;102062.13;;;19.19;100.00
25498;BME280;13406;53.380;7.226;2023-09-12T03:25:44;102006.94;;;19.01;100.00
25498;BME280;13406;53.380;7.226;2023-09-12T03:28:10;102093.47;;;19.40;100.00
25498;BME280;13406;53.380;7.226;2023-09-12T03:30:37;101999.59;;;19.01;100.00
25498;BME280;13406;53.380;7.226;2023-09-12T03:33:03;102086.53;;;19.45;100.00
25498;BME280;13406;53.380;7.226;2023-09-12T03:35:29;102088.44;;;19.44;100.00
25498;BME280;13406;53.380;7.226;2023-09-12T03:37:55;102077.56;;;19.44;100.00
25498;BME280;13406;53.380;7.226;2023-09-12T03:40:20;102075.34;;;19.53;100.00
25498;BME280;13406;53.380;7.226;2023-09-12T03:42:46;101971.94;;;19.04;100.00
25498;BME280;13406;53.380;7.226;2023-09-12T03:45:11;102074.03;;;19.55;100.00
25498;BME280;13406;53.380;7.226;2023-09-12T03:47:37;101953.09;;;18.47;100.00
25498;BME280;13406;53.380;7.226;2023-09-12T03:50:03;101946.75;;;18.35;100.00
25498;BME280;13406;53.380;7.226;2023-09-12T03:52:29;101963.34;;;18.45;100.00
25498;BME280;13406;53.380;7.226;2023-09-12T03:54:54;102074.66;;;19.02;100.00
25498;BME280;13406;53.380;7.226;2023-09-12T03:57:20;101974.56;;;18.74;100.00
25498;BME280;13406;53.380;7.226;2023-09-12T03:59:45;101861.84;;;18.40;100.00
25498;BME280;13406;53.380;7.226;2023-09-12T04:02:12;101801.88;;;18.23;100.00
25498;BME280;13406;53.380;7.226;2023-09-12T04:04:37;101898.41;;;18.81;100.00
25498;BME280;13406;53.380;7.226;2023-09-12T04:07:03;101811.31;;;18.39;100.00
25498;BME280;13406;53.380;7.226;2023-09-12T04:09:29;101804.78;;;18.77;100.00
25498;BME280;13406;53.380;7.226;2023-09-12T04:11:54;101628.78;;;18.18;100.00
25498;BME280;13406;53.380;7.226;2023-09-12T04:14:20;101574.91;;;18.03;100.00
25498;BME280;13406;53.380;7.226;2023-09-12T04:16:46;101688.22;;;19.10;100.00
25498;BME280;13406;53.380;7.226;2023-09-12T04:19:13;101560.47;;;18.45;100.00
25498;BME280;13406;53.380;7.226;2023-09-12T04:21:39;101560.31;;;18.28;100.00
25498;BME280;13406;53.380;7.226;2023-09-12T04:24:05;101593.84;;;18.64;100.00
25498;BME280;13406;53.380;7.226;2023-09-12T04:26:31;101693.19;;;19.02;100.00
25498;BME280;13406;53.380;7.226;2023-09-12T04:28:56;101688.06;;;18.82;100.00
25498;BME280;13406;53.380;7.226;2023-09-12T04:31:21;101662.91;;;18.86;100.00
25498;BME280;13406;53.380;7.226;2023-09-12T04:33:47;101694.00;;;19.02;100.00
25498;BME280;13406;53.380;7.226;2023-09-12T04:36:12;101692.03;;;19.09;100.00
25498;BME280;13406;53.380;7.226;2023-09-12T04:38:38;101674.13;;;18.90;100.00
25498;BME280;13406;53.380;7.226;2023-09-12T04:41:03;101709.56;;;18.83;100.00
25498;BME280;13406;53.380;7.226;2023-09-12T04:43:31;101588.63;;;18.09;100.00
25498;BME280;13406;53.380;7.226;2023-09-12T04:45:57;101688.81;;;18.70;100.00
25498;BME280;13406;53.380;7.226;2023-09-12T04:48:22;101687.88;;;18.95;100.00
25498;BME280;13406;53.380;7.226;2023-09-12T04:50:48;101666.78;;;18.79;100.00
25498;BME280;13406;53.380;7.226;2023-09-12T04:53:14;101584.22;;;18.38;100.00
25498;BME280;13406;53.380;7.226;2023-09-12T04:55:39;101664.47;;;19.17;100.00
25498;BME280;13406;53.380;7.226;2023-09-12T04:58:05;101658.66;;;18.90;100.00
25498;BME280;13406;53.380;7.226;2023-09-12T05:00:32;101648.13;;;18.94;100.00
25498;BME280;13406;53.380;7.226;2023-09-12T05:02:57;101519.78;;;18.03;100.00
25498;BME280;13406;53.380;7.226;2023-09-12T05:05:23;101616.97;;;18.55;100.00
25498;BME280;13406;53.380;7.226;2023-09-12T05:07:48;101648.47;;;18.97;100.00
25498;BME280;13406;53.380;7.226;2023-09-12T05:10:14;101653.81;;;18.92;100.00
25498;BME280;13406;53.380;7.226;2023-09-12T05:12:39;101658.16;;;18.82;100.00
25498;BME280;13406;53.380;7.226;2023-09-12T05:15:05;101671.50;;;18.83;100.00
25498;BME280;13406;53.380;7.226;2023-09-12T05:17:30;101640.84;;;18.64;100.00
25498;BME280;13406;53.380;7.226;2023-09-12T05:19:56;101679.78;;;18.88;100.00
25498;BME280;13406;53.380;7.226;2023-09-12T05:22:21;101674.84;;;18.97;100.00
25498;BME280;13406;53.380;7.226;2023-09-12T05:24:47;101687.75;;;19.13;100.00
25498;BME280;13406;53.380;7.226;2023-09-12T05:27:15;101678.03;;;19.06;100.00
25498;BME280;13406;53.380;7.226;2023-09-12T05:29:40;101694.28;;;19.12;100.00
25498;BME280;13406;53.380;7.226;2023-09-12T05:32:06;101701.47;;;19.07;100.00
25498;BME280;13406;53.380;7.226;2023-09-12T05:34:31;101707.59;;;19.02;100.00
25498;BME280;13406;53.380;7.226;2023-09-12T05:36:57;101614.03;;;18.14;100.00
25498;BME280;13406;53.380;7.226;2023-09-12T05:39:22;101620.00;;;18.35;100.00
25498;BME280;13406;53.380;7.226;2023-09-12T05:41:49;101722.38;;;19.06;100.00
25498;BME280;13406;53.380;7.226;2023-09-12T05:44:14;101644.84;;;18.50;100.00
25498;BME280;13406;53.380;7.226;2023-09-12T05:46:47;101656.00;;;18.72;100.00
25498;BME280;13406;53.380;7.226;2023-09-12T05:49:14;101789.16;;;19.44;100.00
25498;BME280;13406;53.380;7.226;2023-09-12T05:51:40;101697.53;;;18.30;100.00
25498;BME280;13406;53.380;7.226;2023-09-12T05:54:05;101732.81;;;18.49;100.00
25498;BME280;13406;53.380;7.226;2023-09-12T05:56:31;101796.03;;;19.05;100.00
25498;BME280;13406;53.380;7.226;2023-09-12T05:58:56;101773.16;;;18.64;100.00
25498;BME280;13406;53.380;7.226;2023-09-12T06:01:22;101782.22;;;18.76;100.00
25498;BME280;13406;53.380;7.226;2023-09-12T06:03:47;101782.88;;;18.71;100.00
25498;BME280;13406;53.380;7.226;2023-09-12T06:06:13;101778.63;;;18.94;100.00
25498;BME280;13406;53.380;7.226;2023-09-12T06:08:39;101772.25;;;19.00;100.00
25498;BME280;13406;53.380;7.226;2023-09-12T06:11:04;101737.13;;;18.87;100.00
25498;BME280;13406;53.380;7.226;2023-09-12T06:13:30;101759.44;;;19.31;100.00
25498;BME280;13406;53.380;7.226;2023-09-12T06:15:57;101665.38;;;18.46;100.00
25498;BME280;13406;53.380;7.226;2023-09-12T06:18:23;101767.19;;;18.73;100.00
25498;BME280;13406;53.380;7.226;2023-09-12T06:20:49;101780.78;;;18.73;100.00
25498;BME280;13406;53.380;7.226;2023-09-12T06:23:14;101769.03;;;18.61;100.00
25498;BME280;13406;53.380;7.226;2023-09-12T06:25:40;101759.59;;;18.94;100.00
25498;BME280;13406;53.380;7.226;2023-09-12T06:28:08;101774.91;;;19.18;100.00
25498;BME280;13406;53.380;7.226;2023-09-12T06:30:33;101771.47;;;19.23;100.00
25498;BME280;13406;53.380;7.226;2023-09-12T06:32:59;101787.00;;;19.46;100.00
25498;BME280;13406;53.380;7.226;2023-09-12T06:35:24;101759.06;;;19.15;100.00
25498;BME280;13406;53.380;7.226;2023-09-12T06:37:50;101806.50;;;19.43;100.00
25498;BME280;13406;53.380;7.226;2023-09-12T06:40:15;101812.44;;;19.40;100.00
25498;BME280;13406;53.380;7.226;2023-09-12T06:42:41;101814.31;;;19.39;100.00
25498;BME280;13406;53.380;7.226;2023-09-12T06:45:07;101772.75;;;19.09;100.00
25498;BME280;13406;53.380;7.226;2023-09-12T06:47:32;101813.66;;;19.14;100.00
25498;BME280;13406;53.380;7.226;2023-09-12T06:49:58;101826.66;;;19.54;100.00
25498;BME280;13406;53.380;7.226;2023-09-12T06:52:23;101836.81;;;19.58;100.00
25498;BME280;13406;53.380;7.226;2023-09-12T06:54:49;101840.13;;;19.49;100.00
25498;BME280;13406;53.380;7.226;2023-09-12T06:57:14;101831.03;;;19.55;100.00
25498;BME280;13406;53.380;7.226;2023-09-12T06:59:39;101861.25;;;19.77;100.00
25498;BME280;13406;53.380;7.226;2023-09-12T07:02:05;101841.41;;;19.46;100.00
25498;BME280;13406;53.380;7.226;2023-09-12T07:04:30;101864.81;;;19.66;100.00
25498;BME280;13406;53.380;7.226;2023-09-12T07:06:56;101901.28;;;19.88;100.00
25498;BME280;13406;53.380;7.226;2023-09-12T07:09:21;101909.53;;;19.81;100.00
25498;BME280;13406;53.380;7.226;2023-09-12T07:11:48;101849.56;;;19.34;100.00
25498;BME280;13406;53.380;7.226;2023-09-12T07:14:13;101927.06;;;19.74;100.00
25498;BME280;13406;53.380;7.226;2023-09-12T07:16:39;101816.72;;;19.06;100.00
25498;BME280;13406;53.380;7.226;2023-09-12T07:19:04;101839.50;;;19.35;100.00
25498;BME280;13406;53.380;7.226;2023-09-12T07:21:31;101848.72;;;19.34;100.00
25498;BME280;13406;53.380;7.226;2023-09-12T07:23:56;101927.69;;;19.99;100.00
25498;BME280;13406;53.380;7.226;2023-09-12T07:26:22;101952.22;;;19.99;100.00
25498;BME280;13406;53.380;7.226;2023-09-12T07:28:48;101962.50;;;19.97;100.00
25498;BME280;13406;53.380;7.226;2023-09-12T07:31:14;101876.22;;;19.44;100.00
25498;BME280;13406;53.380;7.226;2023-09-12T07:33:39;101886.41;;;19.60;100.00
25498;BME280;13406;53.380;7.226;2023-09-12T07:36:06;101964.28;;;20.15;100.00
25498;BME280;13406;53.380;7.226;2023-09-12T07:38:31;101855.03;;;19.46;100.00
25498;BME280;13406;53.380;7.226;2023-09-12T07:40:58;101873.03;;;19.17;100.00
25498;BME280;13406;53.380;7.226;2023-09-12T07:43:24;101947.94;;;19.92;100.00
25498;BME280;13406;53.380;7.226;2023-09-12T07:45:56;101936.44;;;19.90;100.00
25498;BME280;13406;53.380;7.226;2023-09-12T07:48:22;101948.19;;;20.14;100.00
25498;BME280;13406;53.380;7.226;2023-09-12T07:50:47;101962.66;;;20.26;100.00
25498;BME280;13406;53.380;7.226;2023-09-12T07:53:13;101944.25;;;19.86;100.00
25498;BME280;13406;53.380;7.226;2023-09-12T07:55:39;101938.19;;;19.84;100.00
25498;BME280;13406;53.380;7.226;2023-09-12T07:58:15;101959.56;;;20.11;100.00
25498;BME280;13406;53.380;7.226;2023-09-12T08:00:41;101914.50;;;19.84;100.00
25498;BME280;13406;53.380;7.226;2023-09-12T08:03:06;101904.47;;;19.73;100.00
25498;BME280;13406;53.380;7.226;2023-09-12T08:05:32;101995.50;;;19.89;100.00
25498;BME280;13406;53.380;7.226;2023-09-12T08:07:57;101919.59;;;19.39;100.00
25498;BME280;13406;53.380;7.226;2023-09-12T08:10:23;101913.63;;;19.18;100.00
25498;BME280;13406;53.380;7.226;2023-09-12T08:12:48;101896.91;;;19.45;100.00
25498;BME280;13406;53.380;7.226;2023-09-12T08:15:14;101994.53;;;19.83;100.00
25498;BME280;13406;53.380;7.226;2023-09-12T08:17:40;102015.66;;;20.00;100.00
25498;BME280;13406;53.380;7.226;2023-09-12T08:20:09;101916.06;;;19.38;100.00
25498;BME280;13406;53.380;7.226;2023-09-12T08:22:38;101871.13;;;19.17;100.00
25498;BME280;13406;53.380;7.226;2023-09-12T08:25:04;101857.78;;;19.16;100.00
25498;BME280;13406;53.380;7.226;2023-09-12T08:27:29;101893.59;;;19.43;100.00
25498;BME280;13406;53.380;7.226;2023-09-12T08:29:55;101963.22;;;20.04;100.00
25498;BME280;13406;53.380;7.226;2023-09-12T08:32:20;101973.19;;;20.11;100.00
25498;BME280;13406;53.380;7.226;2023-09-12T08:34:46;101983.94;;;19.94;100.00
25498;BME280;13406;53.380;7.226;2023-09-12T08:37:11;101980.63;;;20.03;100.00
25498;BME280;13406;53.380;7.226;2023-09-12T08:39:42;101975.19;;;20.03;100.00
25498;BME280;13406;53.380;7.226;2023-09-12T08:42:14;101967.09;;;19.85;100.00
25498;BME280;13406;53.380;7.226;2023-09-12T08:44:41;101969.06;;;20.20;100.00
25498;BME280;13406;53.380;7.226;2023-09-12T08:47:08;101892.19;;;19.64;100.00
25498;BME280;13406;53.380;7.226;2023-09-12T08:49:35;102003.56;;;19.96;100.00
25498;BME280;13406;53.380;7.226;2023-09-12T08:52:02;101954.91;;;19.57;100.00
25498;BME280;13406;53.380;7.226;2023-09-12T08:54:27;102020.66;;;20.03;100.00
25498;BME280;13406;53.380;7.226;2023-09-12T08:56:53;102021.28;;;20.17;100.00
25498;BME280;13406;53.380;7.226;2023-09-12T08:59:20;102042.47;;;19.84;100.00
25498;BME280;13406;53.380;7.226;2023-09-12T09:01:46;101993.56;;;19.48;100.00
25498;BME280;13406;53.380;7.226;2023-09-12T09:04:12;102006.88;;;19.86;100.00
25498;BME280;13406;53.380;7.226;2023-09-12T09:06:40;101970.06;;;19.53;100.00
25498;BME280;13406;53.380;7.226;2023-09-12T09:09:07;101972.94;;;19.40;100.00
25498;BME280;13406;53.380;7.226;2023-09-12T09:11:33;101976.28;;;19.24;100.00
25498;BME280;13406;53.380;7.226;2023-09-12T09:14:01;101996.25;;;19.66;100.00
25498;BME280;13406;53.380;7.226;2023-09-12T09:16:28;102007.66;;;19.75;100.00
25498;BME280;13406;53.380;7.226;2023-09-12T09:19:04;101984.69;;;19.71;100.00
25498;BME280;13406;53.380;7.226;2023-09-12T09:21:36;101914.03;;;18.85;100.00
25498;BME280;13406;53.380;7.226;2023-09-12T09:24:08;102003.88;;;19.57;100.00
25498;BME280;13406;53.380;7.226;2023-09-12T09:29:09;101905.88;;;19.04;100.00
25498;BME280;13406;53.380;7.226;2023-09-12T09:31:35;101918.16;;;19.36;100.00
25498;BME280;13406;53.380;7.226;2023-09-12T09:34:03;102046.84;;;20.27;100.00
25498;BME280;13406;53.380;7.226;2023-09-12T09:36:29;101953.00;;;19.76;100.00
25498;BME280;13406;53.380;7.226;2023-09-12T09:38:56;102059.66;;;20.39;100.00
25498;BME280;13406;53.380;7.226;2023-09-12T09:41:24;101970.41;;;19.87;100.00
25498;BME280;13406;53.380;7.226;2023-09-12T09:43:51;101985.69;;;19.88;100.00
25498;BME280;13406;53.380;7.226;2023-09-12T09:46:17;102002.69;;;19.72;100.00
25498;BME280;13406;53.380;7.226;2023-09-12T09:48:50;102123.78;;;20.41;100.00
25498;BME280;13406;53.380;7.226;2023-09-12T09:51:15;101965.13;;;19.13;100.00
25498;BME280;13406;53.380;7.226;2023-09-12T09:53:41;102015.09;;;19.68;100.00
25498;BME280;13406;53.380;7.226;2023-09-12T09:56:09;102122.00;;;20.47;100.00
25498;BME280;13406;53.380;7.226;2023-09-12T09:58:36;102119.41;;;20.40;100.00
25498;BME280;13406;53.380;7.226;2023-09-12T10:01:05;102022.63;;;19.96;100.00
25498;BME280;13406;53.380;7.226;2023-09-12T10:03:34;102102.53;;;20.73;100.00
25498;BME280;13406;53.380;7.226;2023-09-12T10:06:02;102092.81;;;20.54;100.00
25498;BME280;13406;53.380;7.226;2023-09-12T10:08:31;102007.09;;;19.84;100.00
25498;BME280;13406;53.380;7.226;2023-09-12T10:10:57;101995.41;;;20.07;100.00
25498;BME280;13406;53.380;7.226;2023-09-12T10:13:26;102104.22;;;20.32;100.00
25498;BME280;13406;53.380;7.226;2023-09-12T10:15:57;102011.81;;;19.77;100.00
25498;BME280;13406;53.380;7.226;2023-09-12T10:18:25;102023.94;;;19.93;100.00
25498;BME280;13406;53.380;7.226;2023-09-12T10:20:55;102120.09;;;20.77;100.00
25498;BME280;13406;53.380;7.226;2023-09-12T10:23:29;102004.66;;;19.64;100.00
25498;BME280;13406;53.380;7.226;2023-09-12T10:25:56;101988.88;;;19.85;100.00
25498;BME280;13406;53.380;7.226;2023-09-12T10:28:22;102123.88;;;21.00;100.00
25498;BME280;13406;53.380;7.226;2023-09-12T10:30:49;102016.34;;;20.72;100.00
25498;BME280;13406;53.380;7.226;2023-09-12T10:33:16;102115.44;;;21.13;100.00
25498;BME280;13406;53.380;7.226;2023-09-12T10:35:43;102109.53;;;20.93;100.00
25498;BME280;13406;53.380;7.226;2023-09-12T10:38:10;102137.97;;;20.73;100.00
25498;BME280;13406;53.380;7.226;2023-09-12T10:40:40;102151.94;;;20.77;100.00
25498;BME280;13406;53.380;7.226;2023-09-12T10:43:06;102065.47;;;20.42;100.00
25498;BME280;13406;53.380;7.226;2023-09-12T10:45:35;102142.50;;;21.15;100.00
25498;BME280;13406;53.380;7.226;2023-09-12T10:48:02;101995.56;;;20.48;100.00
25498;BME280;13406;53.380;7.226;2023-09-12T10:50:28;102021.69;;;20.79;100.00
25498;BME280;13406;53.380;7.226;2023-09-12T10:52:54;102014.50;;;21.13;100.00
25498;BME280;13406;53.380;7.226;2023-09-12T10:55:20;102079.84;;;22.01;100.00
25498;BME280;13406;53.380;7.226;2023-09-12T10:58:05;102047.69;;;21.74;100.00
25498;BME280;13406;53.380;7.226;2023-09-12T11:00:31;102088.25;;;21.54;100.00
25498;BME280;13406;53.380;7.226;2023-09-12T11:02:58;101996.41;;;20.95;100.00
25498;BME280;13406;53.380;7.226;2023-09-12T11:08:01;101981.81;;;21.02;100.00
25498;BME280;13406;53.380;7.226;2023-09-12T11:10:29;102020.34;;;21.05;100.00
25498;BME280;13406;53.380;7.226;2023-09-12T11:12:57;102096.94;;;21.39;100.00
25498;BME280;13406;53.380;7.226;2023-09-12T11:15:24;102121.63;;;21.44;100.00
25498;BME280;13406;53.380;7.226;2023-09-12T11:23:14;102117.06;;;21.61;100.00
25498;BME280;13406;53.380;7.226;2023-09-12T11:25:39;102105.59;;;21.48;100.00
25498;BME280;13406;53.380;7.226;2023-09-12T11:28:05;102123.66;;;21.77;100.00
25498;BME280;13406;53.380;7.226;2023-09-12T11:30:31;102112.13;;;21.47;100.00
25498;BME280;13406;53.380;7.226;2023-09-12T11:32:58;102122.88;;;21.65;100.00
25498;BME280;13406;53.380;7.226;2023-09-12T11:35:27;102045.81;;;21.11;100.00
25498;BME280;13406;53.380;7.226;2023-09-12T11:37:59;102031.84;;;21.07;100.00
25498;BME280;13406;53.380;7.226;2023-09-12T11:40:40;102117.75;;;21.69;100.00
25498;BME280;13406;53.380;7.226;2023-09-12T11:43:06;102127.97;;;21.73;100.00
25498;BME280;13406;53.380;7.226;2023-09-12T11:45:33;102042.66;;;21.54;100.00
25498;BME280;13406;53.380;7.226;2023-09-12T11:47:59;102104.34;;;21.67;100.00
25498;BME280;13406;53.380;7.226;2023-09-12T11:50:35;102009.47;;;20.82;100.00
25498;BME280;13406;53.380;7.226;2023-09-12T11:53:06;102100.31;;;21.58;100.00
25498;BME280;13406;53.380;7.226;2023-09-12T11:55:33;102077.00;;;21.79;100.00
25498;BME280;13406;53.380;7.226;2023-09-12T11:58:00;102086.44;;;22.17;100.00
25498;BME280;13406;53.380;7.226;2023-09-12T12:00:26;101985.13;;;21.89;100.00
25498;BME280;13406;53.380;7.226;2023-09-12T12:02:54;102016.78;;;21.57;100.00
25498;BME280;13406;53.380;7.226;2023-09-12T12:05:20;102019.19;;;21.99;100.00
25498;BME280;13406;53.380;7.226;2023-09-12T12:07:47;102058.47;;;22.60;100.00
25498;BME280;13406;53.380;7.226;2023-09-12T12:10:14;101934.41;;;21.77;100.00
25498;BME280;13406;53.380;7.226;2023-09-12T12:12:39;102015.97;;;22.69;100.00
25498;BME280;13406;53.380;7.226;2023-09-12T12:15:10;101983.66;;;22.88;100.00
25498;BME280;13406;53.380;7.226;2023-09-12T12:17:37;101886.84;;;22.45;100.00
25498;BME280;13406;53.380;7.226;2023-09-12T12:20:07;101966.69;;;23.30;100.00
25498;BME280;13406;53.380;7.226;2023-09-12T12:22:33;101933.09;;;22.69;100.00
25498;BME280;13406;53.380;7.226;2023-09-12T12:25:08;102011.81;;;22.67;100.00
25498;BME280;13406;53.380;7.226;2023-09-12T12:27:38;102019.56;;;22.92;100.00
25498;BME280;13406;53.380;7.226;2023-09-12T12:30:09;102032.03;;;22.66;100.00
25498;BME280;13406;53.380;7.226;2023-09-12T12:32:42;102003.47;;;22.56;100.00
25498;BME280;13406;53.380;7.226;2023-09-12T12:35:09;102011.84;;;22.50;100.00
25498;BME280;13406;53.380;7.226;2023-09-12T12:37:36;102050.19;;;22.72;100.00
25498;BME280;13406;53.380;7.226;2023-09-12T12:40:02;101962.66;;;22.16;100.00
25498;BME280;13406;53.380;7.226;2023-09-12T12:42:38;102004.06;;;23.19;100.00
25498;BME280;13406;53.380;7.226;2023-09-12T12:45:20;101991.97;;;22.76;100.00
25498;BME280;13406;53.380;7.226;2023-09-12T12:47:46;101959.56;;;22.12;100.00
25498;BME280;13406;53.380;7.226;2023-09-12T12:50:16;102027.41;;;23.05;100.00
25498;BME280;13406;53.380;7.226;2023-09-12T12:52:47;101878.53;;;22.57;100.00
25498;BME280;13406;53.380;7.226;2023-09-12T12:55:13;101980.69;;;22.90;100.00